Latest Weather Observations for Cooma Airport

IDN60801

Issued at 4:03 am EDT Monday 8 February 2016 (issued every 30 minutes, with the page automatically refreshed every 10 minutes)

About weather observations | Map of weather stations | Latest weather observations for NSW | Other Formats
Station Details ID: 070217 Name: COOMA AIRPORT AWS Lat: -36.29 Lon: 148.97 Height: 930.0 m
Data from the previous 72 hours. | See also: Recent months at Cooma Airport
Date/Time
EDT
Temp
°C
App
Temp
°C
Dew
Point
Rel
Hum
%
Delta-T
°C
Wind Press
QNH
hPa
Press
MSL
hPa
Rain
since 9 am
mm
Dir
 
Spd
km/h
Gust
km/h
Spd
kts
Gust
kts
08/04:00am 10.0 8.3 9.9 99 0.1 SSW 9 9 5 5 1021.9 1018.1 0.2
08/03:30am 8.9 6.9 8.8 99 0.1 S 9 11 5 6 1022.0 1018.2 0.2
08/03:00am 10.0 8.9 9.9 99 0.1 SW 6 7 3 4 1022.0 1018.2 0.2
08/02:58am 9.7 8.5 9.6 99 0.1 SW 6 7 3 4 1022.0 1018.2 0.2
08/02:30am 9.3 9.2 9.3 100 0.0 CALM 0 0 0 0 1022.1 1018.3 0.2
08/02:00am 9.5 9.4 9.4 99 0.1 CALM 0 0 0 0 1022.1 1018.3 0.2
08/01:30am 10.6 10.8 10.4 99 0.1 CALM 0 0 0 0 1022.3 1018.5 0.2
08/01:08am 10.6 10.7 10.3 98 0.2 CALM 0 0 0 0 1022.5 1018.6 0.2
08/01:00am 10.6 10.6 9.7 94 0.5 CALM 0 0 0 0 1022.6 1018.7 0.2
08/12:30am 12.1 12.7 11.9 99 0.1 CALM 0 0 0 0 1022.7 1018.8 0.2
08/12:00am 12.9 13.7 12.7 99 0.1 CALM 0 0 0 0 1022.6 1018.7 0.2
 
Date/Time
EDT
Temp
°C
App
Temp
°C
Dew
Point
Rel
Hum
%
Delta-T
°C
Wind Press
QNH
hPa
Press
MSL
hPa
Rain
since 9 am
mm
Dir
 
Spd
km/h
Gust
km/h
Spd
kts
Gust
kts
07/11:30pm 13.2 12.1 12.1 93 0.6 WSW 9 9 5 5 1022.7 1018.8 0.2
07/11:00pm 14.8 13.4 13.3 91 0.9 SW 13 17 7 9 1022.7 1018.8 0.2
07/10:30pm 16.6 17.6 13.1 80 2.0 CALM 0 0 0 0 1022.5 1018.6 0.2
07/10:00pm 18.0 18.3 14.5 80 2.1 NNE 6 7 3 4 1022.2 1018.4 0.2
07/09:30pm 17.6 18.7 13.5 77 2.4 CALM 0 0 0 0 1022.0 1018.2 0.2
07/09:00pm 18.8 18.0 13.9 73 2.9 ESE 11 13 6 7 1021.5 1017.6 0.2
07/08:30pm 19.5 18.3 13.9 70 3.4 ESE 13 17 7 9 1021.0 1017.2 0.2
07/08:00pm 20.7 18.5 13.4 63 4.4 ESE 17 24 9 13 1020.6 1016.7 0.2
07/07:30pm 22.2 20.3 14.3 61 4.8 E 17 24 9 13 1020.0 1016.2 0.2
07/07:00pm 22.7 20.3 14.3 59 5.1 E 20 26 11 14 1019.5 1015.6 0.2
07/06:30pm 23.8 20.7 12.1 48 6.9 SE 20 26 11 14 1019.1 1015.2 0.2
07/06:00pm 25.2 22.8 9.9 38 8.8 SE 13 20 7 11 1018.8 1014.9 0.2
07/05:30pm 24.9 22.8 11.1 42 8.1 S 13 19 7 10 1018.7 1014.8 0.2
07/05:00pm 25.9 22.6 4.4 25 11.3 SSW 11 19 6 10 1018.8 1014.9 0.2
07/04:30pm 25.9 23.1 10.1 37 9.1 SW 15 22 8 12 1018.8 1014.9 0.2
07/04:00pm 25.6 22.9 9.0 35 9.4 SSW 13 20 7 11 1019.0 1015.0 0.2
07/03:30pm 25.7 23.1 10.7 39 8.8 SSW 15 26 8 14 1019.2 1015.3 0.2
07/03:00pm 25.7 22.9 8.7 34 9.6 SSW 13 24 7 13 1019.3 1015.4 0.2
07/02:30pm 24.7 21.6 7.4 33 9.5 SSE 13 20 7 11 1019.4 1015.5 0.2
07/02:00pm 24.5 20.4 6.3 31 9.8 SSW 17 22 9 12 1019.5 1015.6 0.2
07/01:30pm 24.0 22.6 11.0 44 7.6 S 9 19 5 10 1019.6 1015.7 0.2
07/01:00pm 23.6 22.1 10.6 44 7.5 SW 9 15 5 8 1019.9 1016.0 0.2
07/12:30pm 22.2 21.6 12.2 53 5.9 ESE 7 13 4 7 1020.2 1016.3 0.2
07/12:00pm 21.4 20.5 12.5 57 5.2 ENE 9 13 5 7 1020.4 1016.5 0.2
07/11:30am 19.8 18.9 13.7 68 3.7 NE 11 17 6 9 1020.7 1016.8 0.2
07/11:00am 17.9 17.1 15.0 83 1.8 NNE 13 19 7 10 1020.8 1016.9 0.0
07/10:41am 15.3 14.4 14.8 97 0.3 NE 13 19 7 10 1020.8 1016.9 0.0
07/10:30am 14.8 13.4 14.6 99 0.1 NE 15 19 8 10 1020.9 1017.1 0.0
07/10:16am 13.8 12.5 13.8 100 0.0 NNE 13 19 7 10 1021.0 1017.2 0.0
07/10:00am 12.9 11.3 12.9 100 0.0 NNE 13 17 7 9 1020.9 1017.1 0.0
07/09:30am 12.0 9.8 12.0 100 0.0 NE 15 17 8 9 1021.0 1017.2 0.0
07/09:00am 11.5 9.5 11.5 100 0.0 NE 13 17 7 9 1021.1 1017.3 0.0
07/08:30am 11.0 8.9 11.0 100 0.0 NNE 13 17 7 9 1021.0 1017.2 0.0
07/08:00am 10.6 8.3 10.6 100 0.0 NE 13 17 7 9 1021.0 1017.2 0.0
07/07:30am 10.3 8.0 10.3 100 0.0 NNE 13 17 7 9 1020.8 1016.9 0.0
07/07:00am 10.3 8.3 10.3 100 0.0 NNE 11 15 6 8 1020.7 1016.8 0.0
07/06:30am 10.5 8.2 10.5 100 0.0 NNE 13 17 7 9 1020.5 1016.6 0.0
07/06:00am 10.4 7.7 10.4 100 0.0 NNE 15 19 8 10 1020.2 1016.3 0.0
07/05:30am 10.6 8.3 10.6 100 0.0 NNE 13 17 7 9 1019.9 1016.0 0.0
07/05:00am 10.8 8.2 10.8 100 0.0 NNE 15 17 8 9 1019.8 1015.9 0.0
07/04:30am 10.7 8.9 10.7 100 0.0 NE 11 15 6 8 1019.7 1015.8 0.0
07/04:00am 11.0 9.2 11.0 100 0.0 NNE 11 13 6 7 1019.7 1015.8 0.0
07/03:30am 10.8 9.4 10.8 100 0.0 NNE 9 11 5 6 1019.8 1015.9 0.0
07/03:00am 10.7 8.9 10.7 100 0.0 NE 11 13 6 7 1020.0 1016.2 0.0
07/02:30am 9.7 7.6 9.7 100 0.0 NE 11 13 6 7 1020.0 1016.2 0.0
07/02:00am 8.3 5.8 8.2 99 0.1 NE 11 13 6 7 1020.4 1016.5 0.0
07/01:37am 8.5 6.4 8.4 99 0.1 NE 9 13 5 7 1020.5 1016.6 0.0
07/01:36am 8.5 6.8 8.4 99 0.1 NE 7 13 4 7 1020.5 1016.6 0.0
07/01:30am 9.0 7.4 8.9 99 0.1 NNE 7 9 4 5 1020.6 1016.7 0.0
07/01:00am 9.9 7.4 9.8 99 0.1 NE 13 13 7 7 1020.9 1017.1 0.0
07/12:30am 9.1 6.8 9.0 99 0.1 NNE 11 13 6 7 1021.0 1017.2 0.0
07/12:00am 9.7 7.2 9.6 99 0.1 NE 13 13 7 7 1021.0 1017.2 0.0
 
Date/Time
EDT
Temp
°C
App
Temp
°C
Dew
Point
Rel
Hum
%
Delta-T
°C
Wind Press
QNH
hPa
Press
MSL
hPa
Rain
since 9 am
mm
Dir
 
Spd
km/h
Gust
km/h
Spd
kts
Gust
kts
06/11:30pm 10.0 7.6 9.9 99 0.1 NNE 13 15 7 8 1021.0 1017.2 0.0
06/11:00pm 10.6 8.3 10.3 98 0.2 NNE 13 15 7 8 1021.1 1017.3 0.0
06/10:30pm 11.3 8.6 10.4 94 0.5 NNE 15 15 8 8 1021.1 1017.3 0.0
06/10:00pm 12.2 9.6 10.8 91 0.8 NNE 15 19 8 10 1021.1 1017.3 0.0
06/09:30pm 12.9 10.4 11.1 89 1.0 NE 15 19 8 10 1020.8 1016.9 0.0
06/09:00pm 14.2 11.1 11.5 84 1.5 NNE 19 24 10 13 1020.4 1016.5 0.0
06/08:30pm 15.1 12.4 11.7 80 1.9 NNE 17 22 9 12 1020.0 1016.2 0.0
06/08:00pm 16.7 14.0 11.6 72 2.9 NE 17 24 9 13 1019.8 1015.9 0.0
06/07:30pm 18.5 14.9 11.8 65 3.9 NE 22 28 12 15 1019.5 1015.6 0.0
06/07:00pm 19.8 16.7 12.1 61 4.5 ENE 20 26 11 14 1019.1 1015.2 0.0
06/06:30pm 20.5 17.5 12.0 58 5.0 ENE 19 24 10 13 1018.8 1014.9 0.0
06/06:00pm 21.0 18.3 11.6 55 5.4 ENE 17 22 9 12 1018.8 1014.9 0.0
06/05:30pm 21.4 18.9 12.3 56 5.4 ENE 17 24 9 13 1018.7 1014.8 0.0
06/05:00pm 21.5 19.5 12.6 57 5.3 ENE 15 22 8 12 1018.8 1014.9 0.0
06/04:30pm 21.5 19.2 12.9 58 5.1 ENE 17 22 9 12 1019.0 1015.0 0.0
06/04:00pm 21.4 18.8 12.0 55 5.5 ENE 17 24 9 13 1019.2 1015.3 0.0
06/03:30pm 21.2 19.3 11.8 55 5.5 E 13 17 7 9 1019.5 1015.6 0.0
06/03:00pm 20.4 17.8 10.8 54 5.5 ENE 15 24 8 13 1019.8 1015.9 0.0
06/02:30pm 20.6 18.3 11.8 57 5.1 E 15 28 8 15 1020.2 1016.3 0.0
06/02:00pm 20.1 18.1 12.8 63 4.3 NE 15 24 8 13 1020.4 1016.5 0.0
06/01:30pm 19.7 17.2 12.2 62 4.4 ENE 17 28 9 15 1020.7 1016.8 0.0
06/01:00pm 19.1 16.1 12.1 64 4.1 NE 19 28 10 15 1020.9 1017.1 0.0
06/12:30pm 18.5 15.2 11.6 64 4.0 NNE 20 28 11 15 1021.3 1017.4 0.0
06/12:00pm 17.9 14.8 12.1 69 3.3 NE 20 26 11 14 1021.5 1017.6 0.0
06/11:30am 17.3 13.9 11.3 68 3.4 NNE 20 30 11 16 1021.8 1017.9 0.0
06/11:00am 16.4 13.5 10.9 70 3.1 NNE 17 24 9 13 1022.0 1018.2 0.0
06/10:30am 16.0 12.5 10.3 69 3.2 NE 19 26 10 14 1022.1 1018.3 0.0
06/10:00am 15.8 12.6 10.1 69 3.1 NE 17 24 9 13 1022.3 1018.5 0.0
06/09:30am 15.2 12.4 11.2 77 2.2 NE 17 24 9 13 1022.3 1018.5 0.0
06/09:00am 14.1 12.4 12.3 89 1.0 NE 13 20 7 11 1022.3 1018.5 0.4
06/08:46am 13.6 12.4 12.7 94 0.5 NE 11 15 6 8 1022.3 1018.5 0.4
06/08:30am 13.8 13.2 13.5 98 0.2 NE 9 13 5 7 1022.5 1018.6 0.4
06/08:00am 13.0 13.9 12.8 99 0.1 CALM 0 0 0 0 1022.2 1018.4 0.4
06/07:58am 13.0 13.9 12.8 99 0.1 CALM 0 0 0 0 1022.1 1018.3 0.4
06/07:31am 12.4 13.1 12.2 99 0.1 CALM 0 0 0 0 1022.0 1018.2 0.4
06/07:30am 12.4 13.1 12.2 99 0.1 CALM 0 0 0 0 1022.0 1018.2 0.4
06/07:18am 12.3 12.2 12.1 99 0.1 SW 4 7 2 4 1022.0 1018.2 0.4
06/07:17am 12.3 12.3 12.3 100 0.0 SW 4 7 2 4 1022.0 1018.2 0.4
06/07:00am 12.4 11.8 12.4 100 0.0 SW 7 7 4 4 1021.8 1017.9 0.4
06/06:50am 12.3 11.7 12.3 100 0.0 SSW 7 9 4 5 1021.8 1017.9 0.2
06/06:39am 12.3 11.7 12.3 100 0.0 SSW 7 9 4 5 1021.7 1017.8 0.2
06/06:32am 12.2 11.2 12.2 100 0.0 SSW 9 11 5 6 1021.6 1017.7 0.2
06/06:30am 12.2 11.2 12.2 100 0.0 SSW 9 11 5 6 1021.6 1017.7 0.2
06/06:08am 12.1 11.0 11.9 99 0.1 SSW 9 11 5 6 1021.4 1017.5 0.2
06/06:00am 12.1 11.4 12.1 100 0.0 SSW 7 11 4 6 1021.4 1017.5 0.2
06/05:30am 12.2 11.2 12.2 100 0.0 SSW 9 11 5 6 1021.3 1017.4 0.2
06/05:07am 12.3 11.6 12.1 99 0.1 SW 7 9 4 5 1021.3 1017.4 0.0
06/05:00am 12.2 11.1 12.0 99 0.1 SW 9 9 5 5 1021.3 1017.4 0.0
06/04:47am 12.2 12.1 12.0 99 0.1 SW 4 9 2 5 1021.3 1017.4 0.0
06/04:30am 12.2 12.8 12.0 99 0.1 CALM 0 0 0 0 1021.3 1017.4 0.0
06/04:00am 12.3 12.6 12.1 99 0.1 SE 2 7 1 4 1021.4 1017.5 0.0
06/03:48am 12.4 11.7 12.1 98 0.2 SSE 7 9 4 5 1021.5 1017.6 0.0
06/03:30am 12.5 11.3 11.6 94 0.5 SSE 9 11 5 6 1021.5 1017.6 0.0
06/03:00am 12.7 11.9 11.8 94 0.5 S 7 9 4 5 1021.7 1017.8 0.0
06/02:30am 12.7 13.2 11.6 93 0.6 CALM 0 0 0 0 1022.0 1018.2 0.0
06/02:24am 12.8 13.3 11.7 93 0.6 CALM 0 0 0 0 1022.0 1018.2 0.0
06/02:10am 12.9 12.1 11.6 92 0.7 SE 7 9 4 5 1022.1 1018.3 0.0
06/02:00am 13.0 12.3 11.9 93 0.6 SE 7 9 4 5 1022.2 1018.4 0.0
06/01:30am 12.9 12.6 11.6 92 0.7 SE 4 7 2 4 1022.5 1018.6 0.0
06/01:00am 12.9 13.5 11.8 93 0.6 CALM 0 0 0 0 1022.7 1018.8 0.0
06/12:30am 11.8 12.3 11.6 99 0.1 CALM 0 6 0 3 1023.0 1019.2 0.0
06/12:00am 11.1 11.3 10.6 97 0.3 CALM 0 0 0 0 1023.2 1019.4 0.0
 
Date/Time
EDT
Temp
°C
App
Temp
°C
Dew
Point
Rel
Hum
%
Delta-T
°C
Wind Press
QNH
hPa
Press
MSL
hPa
Rain
since 9 am
mm
Dir
 
Spd
km/h
Gust
km/h
Spd
kts
Gust
kts
05/11:30pm 11.0 10.0 10.4 96 0.3 W 6 11 3 6 1023.2 1019.4 0.0
05/11:00pm 12.1 11.0 11.9 99 0.1 E 9 15 5 8 1023.4 1019.6 0.0
05/10:30pm 11.3 10.3 10.4 94 0.5 N 6 9 3 5 1023.4 1019.6 0.0
05/10:00pm 12.4 10.7 11.1 92 0.7 ENE 11 17 6 9 1023.4 1019.6 0.0
05/09:30pm 12.9 10.4 11.1 89 1.0 E 15 22 8 12 1023.1 1019.3 0.0
05/09:00pm 13.3 10.0 11.0 86 1.3 E 19 24 10 13 1022.8 1018.9 0.0
05/08:30pm 13.8 11.4 11.3 85 1.4 E 15 19 8 10 1022.5 1018.6 0.0
05/08:00pm 14.8 11.7 11.6 81 1.8 E 19 24 10 13 1022.2 1018.4 0.0
05/07:30pm 15.5 12.5 12.1 80 1.9 E 19 26 10 14 1022.1 1018.3 0.0
05/07:00pm 15.8 10.8 11.0 73 2.7 E 28 35 15 19 1021.9 1018.1 0.0
05/06:30pm 17.3 13.6 9.5 60 4.3 E 19 24 10 13 1021.6 1017.7 0.0
05/06:00pm 18.2 14.9 11.0 63 4.1 ESE 19 28 10 15 1021.7 1017.8 0.0
05/05:30pm 17.7 14.2 10.8 64 3.9 E 20 30 11 16 1021.7 1017.8 0.0
05/05:00pm 18.5 14.7 9.8 57 4.8 ENE 20 28 11 15 1021.8 1017.9 0.0
05/04:30pm 17.7 13.5 9.8 60 4.4 E 22 32 12 17 1021.7 1017.8 0.0
05/04:00pm 19.1 16.0 10.4 57 4.9 ESE 17 26 9 14 1021.7 1017.8 0.0
05/03:30pm 20.0 17.2 12.5 62 4.4 E 19 32 10 17 1021.8 1017.9 0.0
05/03:00pm 20.1 17.3 11.3 57 5.0 ESE 17 30 9 16 1022.0 1018.2 0.0
05/02:30pm 19.1 16.1 12.1 64 4.1 ESE 19 26 10 14 1022.2 1018.4 0.0
05/02:00pm 18.9 16.5 10.2 57 4.9 E 13 22 7 12 1022.3 1018.5 0.0
05/01:30pm 17.8 15.3 10.9 64 3.9 SSW 15 22 8 12 1022.5 1018.6 0.0
05/01:00pm 18.1 15.8 11.7 66 3.7 SSE 15 24 8 13 1022.8 1018.9 0.0
05/12:30pm 17.0 14.6 9.9 63 3.9 SSE 13 22 7 12 1023.0 1019.2 0.0
05/12:00pm 16.6 15.2 9.5 63 3.9 SSW 7 11 4 6 1023.3 1019.5 0.0
05/11:30am 15.6 12.0 9.9 69 3.1 S 19 26 10 14 1023.6 1019.7 0.0
05/11:00am 15.1 11.4 10.1 72 2.7 S 20 28 11 15 1023.8 1019.9 0.0
05/10:30am 14.3 10.8 10.3 77 2.2 S 19 26 10 14 1023.7 1019.8 0.0
05/10:00am 12.9 9.6 9.7 81 1.7 SSW 17 24 9 13 1023.7 1019.8 0.0
05/09:30am 12.4 9.3 10.3 87 1.1 SSW 17 20 9 11 1023.4 1019.6 0.0
05/09:00am 11.5 7.8 10.2 92 0.7 SSW 20 24 11 13 1023.4 1019.6 0.2
05/08:30am 11.0 7.5 10.1 94 0.5 SSW 19 22 10 12 1023.1 1019.3 0.2
05/08:00am 10.4 6.8 9.9 97 0.3 SSW 19 22 10 12 1022.9 1019.1 0.2
05/07:30am 10.1 6.9 9.8 98 0.2 SSW 17 20 9 11 1022.8 1018.9 0.2
05/07:00am 9.8 7.2 9.5 98 0.2 SSW 13 17 7 9 1022.3 1018.5 0.2
05/06:30am 9.2 6.5 9.1 99 0.1 SW 13 15 7 8 1021.8 1017.9 0.2
05/06:00am 8.9 6.2 8.8 99 0.1 SSW 13 15 7 8 1021.7 1017.8 0.2
05/05:30am 8.8 6.4 8.7 99 0.1 SW 11 13 6 7 1021.4 1017.5 0.2
05/05:00am 8.4 5.9 8.3 99 0.1 SSW 11 13 6 7 1021.3 1017.4 0.2
05/04:30am 8.0 5.0 7.9 99 0.1 WSW 13 15 7 8 1021.1 1017.3 0.0

Other Formats:

Comma delimited format used in spreadsheet applications
http://www.bom.gov.au/fwo/IDN60801/IDN60801.94921.axf

JavaScript Object Notation format (JSON) in row-major order
http://www.bom.gov.au/fwo/IDN60801/IDN60801.94921.json